Time;durP1;ratioP1;P1;durP2;ratioP2;P2;SDS_P1;SDS_P2;PMS_P1;PMS_P2;Temp;Humidity;BMP_temperature;BMP_pressure;BME280_temperature;BME280_humidity;BME280_pressure;Samples;Min_cycle;Max_cycle;Signal;HPM_P1;HPM_P2
2021/01/02 00:00:22;;;;;;;67.13;35.33;;;;;;;-0.25;86.11;98682.17;119053;1151;65175;-82
2021/01/02 00:03:19;;;;;;;70.30;40.70;;;;;;;-0.30;86.25;98686.67;119044;1151;65220;-82
2021/01/02 00:06:01;;;;;;;68.35;32.90;;;;;;;-0.31;86.43;98689.35;119122;1151;65155;-82
2021/01/02 00:08:30;;;;;;;69.23;34.90;;;;;;;-0.34;86.31;98682.44;119079;1151;65111;-82
2021/01/02 00:11:23;;;;;;;68.87;34.10;;;;;;;-0.36;86.91;98689.47;119128;1151;65159;-82
2021/01/02 00:14:07;;;;;;;66.73;35.73;;;;;;;-0.35;86.66;98685.94;118749;1151;65088;-82
2021/01/02 00:16:52;;;;;;;64.90;32.93;;;;;;;-0.37;86.55;98676.41;118569;1151;65203;-82
2021/01/02 00:19:22;;;;;;;58.33;31.23;;;;;;;-0.46;86.93;98688.00;118525;1151;65034;-82
2021/01/02 00:22:07;;;;;;;60.45;32.70;;;;;;;-0.56;86.36;98691.77;118823;1151;65128;-81
2021/01/02 00:24:37;;;;;;;67.27;33.33;;;;;;;-0.64;86.64;98696.34;118974;1151;65149;-82
2021/01/02 00:27:12;;;;;;;56.05;29.80;;;;;;;-0.68;86.59;98695.58;119174;1151;65167;-82
2021/01/02 00:30:01;;;;;;;58.83;30.03;;;;;;;-0.73;87.00;98694.84;119013;1151;65160;-82
2021/01/02 00:32:58;;;;;;;64.65;33.10;;;;;;;-0.78;86.90;98696.72;119284;1151;65174;-81
2021/01/02 00:35:27;;;;;;;62.23;33.53;;;;;;;-0.79;86.96;98697.59;119273;1150;65105;-81
2021/01/02 00:37:54;;;;;;;58.03;31.37;;;;;;;-0.78;87.31;98707.19;119170;1150;65098;-81
2021/01/02 00:40:20;;;;;;;73.20;36.77;;;;;;;-0.78;87.51;98708.03;119329;1150;65143;-81
2021/01/02 00:42:48;;;;;;;65.93;35.47;;;;;;;-0.75;87.86;98697.48;119236;1150;65223;-82
2021/01/02 00:45:20;;;;;;;67.90;34.03;;;;;;;-0.74;87.71;98706.19;119342;1151;65103;-81
2021/01/02 00:47:48;;;;;;;69.30;34.03;;;;;;;-0.76;87.72;98708.86;119297;1151;65123;-81
2021/01/02 00:50:17;;;;;;;67.40;33.27;;;;;;;-0.79;87.14;98708.95;119329;1151;65086;-81
2021/01/02 00:52:47;;;;;;;63.83;33.50;;;;;;;-0.80;87.17;98706.36;118933;1151;65111;-81
2021/01/02 00:55:59;;;;;;;61.92;32.35;;;;;;;-0.78;87.77;98715.03;118702;1149;65197;-81
2021/01/02 00:59:05;;;;;;;59.87;30.13;;;;;;;-0.75;87.78;98696.64;118047;1154;65309;-81
2021/01/02 01:01:45;;;;;;;66.87;34.67;;;;;;;-0.79;87.42;98708.95;118839;1151;65111;-81
2021/01/02 01:04:20;;;;;;;61.13;33.57;;;;;;;-0.73;87.49;98718.39;119305;1151;65146;-81
2021/01/02 01:06:54;;;;;;;63.33;33.87;;;;;;;-0.69;87.68;98718.25;119052;1150;65115;-81
2021/01/02 01:09:24;;;;;;;59.03;33.30;;;;;;;-0.58;87.93;98718.00;119010;1151;65273;-81
2021/01/02 01:11:55;;;;;;;65.65;35.98;;;;;;;-0.53;87.55;98726.56;119108;1150;65201;-81
2021/01/02 01:14:22;;;;;;;61.80;33.70;;;;;;;-0.50;87.76;98713.41;119038;1151;65137;-81
2021/01/02 01:16:55;;;;;;;64.20;34.20;;;;;;;-0.48;87.45;98723.83;119355;1151;65114;-81
2021/01/02 01:19:27;;;;;;;55.53;32.07;;;;;;;-0.54;86.93;98718.77;119053;1151;65536;-80
2021/01/02 01:22:00;;;;;;;64.83;34.67;;;;;;;-0.59;86.99;98720.64;119303;1150;65124;-81
2021/01/02 01:24:37;;;;;;;61.05;33.00;;;;;;;-0.63;86.73;98725.11;119277;1150;65165;-80
2021/01/02 01:27:49;;;;;;;61.57;33.47;;;;;;;-0.68;86.92;98721.75;119320;1151;65137;-82
2021/01/02 01:30:21;;;;;;;67.27;35.57;;;;;;;-0.71;87.30;98720.07;119309;1150;65101;-81
2021/01/02 01:33:00;;;;;;;62.30;34.23;;;;;;;-0.73;87.28;98721.86;119320;1150;65229;-81
2021/01/02 01:35:28;;;;;;;62.43;33.17;;;;;;;-0.76;87.39;98724.56;119328;1151;65121;-80
2021/01/02 01:37:58;;;;;;;58.40;32.90;;;;;;;-0.80;87.02;98722.05;119334;1150;65124;-81
2021/01/02 01:40:26;;;;;;;63.40;34.90;;;;;;;-0.81;87.24;98726.44;119361;1150;65127;-81
2021/01/02 01:43:20;;;;;;;65.17;34.47;;;;;;;-0.77;87.25;98728.06;119305;1151;65100;-81
2021/01/02 01:46:12;;;;;;;70.27;34.83;;;;;;;-0.78;87.84;98728.97;118859;1150;65034;-81
2021/01/02 01:49:05;;;;;;;61.77;33.30;;;;;;;-0.77;87.92;98724.59;118660;1150;65035;-81
2021/01/02 01:51:35;;;;;;;63.30;34.30;;;;;;;-0.74;87.88;98728.00;119230;1150;65569;-81
2021/01/02 01:54:28;;;;;;;59.23;32.20;;;;;;;-0.75;87.85;98726.27;119226;1150;65129;-81
2021/01/02 01:57:03;;;;;;;61.55;33.55;;;;;;;-0.78;87.14;98728.11;119355;1151;65124;-81
2021/01/02 01:59:56;;;;;;;65.17;35.07;;;;;;;-0.80;87.33;98730.76;119275;1150;65104;-81
2021/01/02 02:02:53;;;;;;;61.37;32.47;;;;;;;-0.82;87.45;98718.61;119262;1150;65604;-81
2021/01/02 02:05:24;;;;;;;60.37;32.20;;;;;;;-0.80;87.14;98719.44;119135;1151;65098;-82
2021/01/02 02:08:02;;;;;;;61.03;31.97;;;;;;;-0.79;87.29;98721.14;119283;1150;65178;-80
2021/01/02 02:10:30;;;;;;;63.30;32.77;;;;;;;-0.78;87.14;98730.73;119279;1150;65123;-80
2021/01/02 02:12:59;;;;;;;62.80;33.13;;;;;;;-0.74;87.23;98716.66;119282;1150;65094;-81
2021/01/02 02:15:29;;;;;;;64.77;34.57;;;;;;;-0.72;87.60;98715.72;119218;1151;65090;-81
2021/01/02 02:18:03;;;;;;;;;;;;;;;-0.69;87.33;98722.63;119005;1150;65143;-81
2021/01/02 02:20:31;;;;;;;66.67;34.90;;;;;;;-0.66;87.66;98712.08;119003;1150;65145;-83
2021/01/02 02:23:06;;;;;;;65.13;32.73;;;;;;;-0.67;87.73;98715.61;118816;1150;65114;-81
2021/01/02 02:25:46;;;;;;;70.70;34.70;;;;;;;-0.67;87.21;98705.99;118690;1150;65206;-82
2021/01/02 02:28:41;;;;;;;62.88;31.27;;;;;;;-0.71;87.46;98713.95;118726;1150;65146;-80
2021/01/02 02:31:08;;;;;;;66.60;33.90;;;;;;;-0.75;87.19;98714.95;118604;1151;65213;-80
2021/01/02 02:33:35;;;;;;;63.67;34.13;;;;;;;-0.79;87.22;98716.80;119011;1150;65507;-82
2021/01/02 02:36:06;;;;;;;61.80;32.37;;;;;;;-0.81;87.30;98713.36;118508;1151;65130;-80
2021/01/02 02:38:36;;;;;;;66.80;33.53;;;;;;;-0.83;87.49;98714.29;119041;1150;65564;-80
2021/01/02 02:41:10;;;;;;;60.77;32.30;;;;;;;-0.87;87.33;98710.02;118941;1150;65124;-80
2021/01/02 02:43:41;;;;;;;60.23;30.83;;;;;;;-0.87;87.31;98707.41;118745;1151;65663;-81
2021/01/02 02:46:14;;;;;;;62.77;31.93;;;;;;;-0.84;87.39;98715.17;119341;1150;65579;-80
2021/01/02 02:48:44;;;;;;;68.90;34.60;;;;;;;-0.80;87.40;98706.36;119316;1151;65134;-81
2021/01/02 02:51:14;;;;;;;66.02;35.25;;;;;;;-0.77;87.42;98704.51;119343;1150;65124;-80
2021/01/02 02:53:41;;;;;;;67.30;35.23;;;;;;;-0.76;87.87;98701.02;119297;1151;65261;-83
2021/01/02 02:56:08;;;;;;;62.83;34.43;;;;;;;-0.74;88.09;98709.69;119300;1150;65129;-80
2021/01/02 02:58:35;;;;;;;57.37;31.43;;;;;;;-0.73;87.46;98703.55;119320;1150;65200;-81
2021/01/02 03:01:01;;;;;;;53.33;30.73;;;;;;;-0.74;87.38;98709.69;119302;1150;65134;-82
2021/01/02 03:03:28;;;;;;;61.17;32.73;;;;;;;-0.75;87.37;98704.48;119042;1151;65118;-80
2021/01/02 03:05:54;;;;;;;61.25;31.65;;;;;;;-0.73;87.38;98706.16;119047;1151;65127;-81
2021/01/02 03:08:21;;;;;;;63.30;33.97;;;;;;;-0.69;88.09;98701.70;119194;1151;65148;-80
2021/01/02 03:10:48;;;;;;;55.07;31.23;;;;;;;-0.64;87.36;98704.20;118780;1151;65555;-81
2021/01/02 03:13:14;;;;;;;52.20;30.70;;;;;;;-0.64;87.37;98691.97;118459;1150;65075;-81
2021/01/02 03:15:42;;;;;;;54.60;30.97;;;;;;;-0.62;87.62;98695.41;118636;1150;65037;-81
2021/01/02 03:18:10;;;;;;;58.13;29.73;;;;;;;-0.58;87.22;98712.77;118797;1151;65277;-79
2021/01/02 03:20:37;;;;;;;61.40;32.00;;;;;;;-0.58;87.14;98702.30;118700;1150;65171;-80
2021/01/02 03:23:05;;;;;;;62.23;32.47;;;;;;;-0.56;87.45;98705.70;118720;1150;65143;-80
2021/01/02 03:25:32;;;;;;;54.37;30.87;;;;;;;-0.57;87.37;98700.53;118954;1151;65115;-82
2021/01/02 03:27:59;;;;;;;58.97;31.10;;;;;;;-0.54;87.27;98709.15;119060;1151;65135;-81
2021/01/02 03:30:29;;;;;;;58.83;32.20;;;;;;;-0.51;87.43;98700.36;119235;1151;65207;-81
2021/01/02 03:32:55;;;;;;;68.20;36.57;;;;;;;-0.48;87.26;98703.73;119091;1150;65158;-81
2021/01/02 03:35:22;;;;;;;60.83;34.73;;;;;;;-0.47;87.26;98708.09;118780;1151;65115;-81
2021/01/02 03:37:49;;;;;;;59.83;31.93;;;;;;;-0.50;87.76;98707.30;119006;1150;65127;-81
2021/01/02 03:40:17;;;;;;;55.47;31.53;;;;;;;-0.50;87.09;98709.91;118715;1150;65226;-81
2021/01/02 03:42:46;;;;;;;57.67;31.37;;;;;;;-0.51;87.37;98700.36;119288;1150;65139;-81
2021/01/02 03:45:14;;;;;;;51.07;28.93;;;;;;;-0.51;87.29;98703.83;119339;1150;65103;-81
2021/01/02 03:47:45;;;;;;;58.63;34.00;;;;;;;-0.53;87.44;98715.23;119340;1151;65130;-81
2021/01/02 03:50:13;;;;;;;63.17;33.13;;;;;;;-0.51;87.35;98705.59;119103;1151;65117;-81
2021/01/02 03:52:40;;;;;;;55.47;30.70;;;;;;;-0.52;87.54;98711.73;119285;1150;65083;-80
2021/01/02 03:55:08;;;;;;;53.93;30.47;;;;;;;-0.52;87.21;98703.88;119302;1150;65159;-81
2021/01/02 03:57:35;;;;;;;50.67;30.67;;;;;;;-0.55;87.73;98710.06;118979;1151;65155;-82
2021/01/02 04:00:06;;;;;;;50.13;28.20;;;;;;;-0.53;87.65;98700.38;119066;1150;65050;-80
2021/01/02 04:02:34;;;;;;;50.57;27.67;;;;;;;-0.52;87.64;98694.27;119125;1151;65223;-81
2021/01/02 04:05:01;;;;;;;52.15;30.75;;;;;;;-0.52;87.74;98704.73;119308;1150;65102;-80
2021/01/02 04:07:27;;;;;;;53.93;31.47;;;;;;;-0.51;87.09;98702.97;119294;1150;65242;-82
2021/01/02 04:09:54;;;;;;;52.80;29.15;;;;;;;-0.51;87.90;98714.30;119225;1151;65074;-82
2021/01/02 04:12:20;;;;;;;54.77;30.77;;;;;;;-0.51;87.33;98709.06;118572;1151;65184;-82
2021/01/02 04:14:47;;;;;;;50.13;28.37;;;;;;;-0.45;87.46;98708.91;118596;1150;65134;-82
2021/01/02 04:17:13;;;;;;;52.53;29.33;;;;;;;-0.45;87.54;98710.65;118714;1150;65123;-82
2021/01/02 04:19:40;;;;;;;50.30;28.57;;;;;;;-0.43;87.79;98710.63;118859;1151;65306;-82
2021/01/02 04:22:06;;;;;;;54.90;30.60;;;;;;;-0.45;87.27;98714.16;118795;1151;65118;-82
2021/01/02 04:24:32;;;;;;;56.53;31.40;;;;;;;-0.46;87.65;98717.66;118701;1151;65060;-81
2021/01/02 04:27:03;;;;;;;49.90;27.43;;;;;;;-0.43;87.65;98715.86;118980;1150;65196;-82
2021/01/02 04:29:29;;;;;;;47.15;29.10;;;;;;;-0.46;87.51;98712.41;118891;1150;65526;-81
2021/01/02 04:31:58;;;;;;;50.47;28.47;;;;;;;-0.49;87.79;98715.13;119230;1151;65229;-81
2021/01/02 04:34:25;;;;;;;54.00;29.07;;;;;;;-0.52;87.83;98727.44;119287;1151;65484;-80
2021/01/02 04:36:51;;;;;;;50.43;29.23;;;;;;;-0.52;87.56;98719.59;119333;1150;65130;-82
2021/01/02 04:39:19;;;;;;;48.20;28.77;;;;;;;-0.53;87.94;98726.56;119329;1150;65514;-82
2021/01/02 04:41:45;;;;;;;55.30;32.43;;;;;;;-0.55;87.56;98724.91;119349;1150;65049;-82
2021/01/02 04:44:13;;;;;;;48.55;28.90;;;;;;;-0.50;87.93;98731.73;119197;1150;65223;-80
2021/01/02 04:46:44;;;;;;;56.93;30.97;;;;;;;-0.48;87.62;98718.59;119254;1150;65125;-80
2021/01/02 04:49:10;;;;;;;52.93;29.40;;;;;;;-0.50;88.12;98731.73;119311;1150;65034;-80
2021/01/02 04:51:37;;;;;;;51.87;29.20;;;;;;;-0.50;87.24;98731.73;119265;1150;65169;-81
2021/01/02 04:54:07;;;;;;;58.03;34.00;;;;;;;-0.48;87.45;98723.83;119019;1151;65139;-82
2021/01/02 04:56:38;;;;;;;51.07;29.83;;;;;;;-0.47;87.41;98736.03;119165;1150;65038;-82
2021/01/02 04:59:10;;;;;;;47.00;27.33;;;;;;;-0.45;88.00;98726.36;119088;1151;65124;-82
2021/01/02 05:01:38;;;;;;;50.63;29.90;;;;;;;-0.44;87.50;98735.95;119291;1150;65138;-82
2021/01/02 05:04:05;;;;;;;55.87;31.97;;;;;;;-0.40;87.83;98736.72;119359;1149;65114;-82
2021/01/02 05:06:32;;;;;;;49.53;29.60;;;;;;;-0.38;87.19;98740.16;119276;1151;65147;-83
2021/01/02 05:09:05;;;;;;;48.80;29.15;;;;;;;-0.39;87.20;98743.69;118917;1150;65235;-81
2021/01/02 05:11:39;;;;;;;43.73;26.70;;;;;;;-0.39;87.11;98741.06;119064;1150;65139;-81
2021/01/02 05:14:06;;;;;;;47.97;27.77;;;;;;;-0.40;87.68;98740.19;119334;1150;65107;-81
2021/01/02 05:16:35;;;;;;;49.10;29.00;;;;;;;-0.43;87.51;98748.12;119113;1151;65188;-81
2021/01/02 05:19:08;;;;;;;45.27;27.43;;;;;;;-0.46;87.24;98741.20;119246;1150;65102;-80
2021/01/02 05:21:36;;;;;;;51.17;29.40;;;;;;;-0.46;87.58;98745.59;119283;1151;65132;-81
2021/01/02 05:24:16;;;;;;;47.70;28.20;;;;;;;-0.43;87.25;98752.50;119361;1150;65151;-80
2021/01/02 05:26:46;;;;;;;51.83;27.93;;;;;;;-0.42;87.91;98746.36;119307;1150;65047;-80
2021/01/02 05:29:19;;;;;;;50.30;28.63;;;;;;;-0.45;87.13;98758.66;119286;1150;65133;-81
2021/01/02 05:31:51;;;;;;;51.50;28.80;;;;;;;-0.47;87.96;98755.21;119324;1151;65126;-81
2021/01/02 05:34:25;;;;;;;53.27;30.40;;;;;;;-0.44;87.26;98762.12;119305;1151;65220;-81
2021/01/02 05:36:59;;;;;;;52.60;28.93;;;;;;;-0.45;88.00;98756.04;119312;1151;65140;-80
2021/01/02 05:39:38;;;;;;;48.43;28.00;;;;;;;-0.43;87.68;98770.83;119110;1151;65185;-81
2021/01/02 05:42:06;;;;;;;55.83;33.87;;;;;;;-0.39;87.90;98773.34;119282;1151;65124;-81
2021/01/02 05:44:39;;;;;;;55.23;31.67;;;;;;;-0.35;88.00;98759.25;119328;1150;65124;-81
2021/01/02 05:47:06;;;;;;;59.40;34.50;;;;;;;-0.35;87.51;98779.34;119344;1150;65124;-81
2021/01/02 05:49:45;;;;;;;53.70;32.55;;;;;;;-0.36;87.91;98762.78;119336;1150;65115;-81
2021/01/02 05:52:13;;;;;;;51.50;30.67;;;;;;;-0.37;87.90;98758.45;119070;1151;65169;-81
2021/01/02 05:54:50;;;;;;;54.23;31.90;;;;;;;-0.38;87.23;98766.34;119097;1151;65068;-80
2021/01/02 05:57:27;;;;;;;50.80;30.67;;;;;;;-0.39;87.28;98767.25;119054;1151;65102;-80
2021/01/02 05:59:55;;;;;;;60.23;35.17;;;;;;;-0.38;87.48;98769.80;119292;1151;65203;-81
2021/01/02 06:02:29;;;;;;;60.05;33.70;;;;;;;-0.38;87.52;98759.34;119325;1151;65226;-82
2021/01/02 06:05:11;;;;;;;58.77;33.40;;;;;;;-0.39;88.00;98768.10;119355;1150;65229;-80
2021/01/02 06:07:39;;;;;;;60.85;33.40;;;;;;;-0.40;87.31;98779.45;119240;1150;65117;-82
2021/01/02 06:10:10;;;;;;;61.53;33.37;;;;;;;-0.42;88.17;98770.80;119089;1151;65121;-81
2021/01/02 06:12:39;;;;;;;57.37;32.63;;;;;;;-0.45;88.12;98773.47;119267;1150;65233;-81
2021/01/02 06:15:09;;;;;;;56.35;31.20;;;;;;;-0.46;87.93;98772.63;119293;1150;65035;-81
2021/01/02 06:17:37;;;;;;;64.25;34.60;;;;;;;-0.47;87.72;98770.92;119081;1151;65140;-81
2021/01/02 06:20:05;;;;;;;59.83;34.30;;;;;;;-0.51;87.74;98763.17;119073;1151;65948;-81
2021/01/02 06:22:32;;;;;;;59.33;33.20;;;;;;;-0.55;87.84;98764.17;119268;1151;65036;-81
2021/01/02 06:24:59;;;;;;;66.20;34.45;;;;;;;-0.62;87.88;98760.84;119020;1151;65244;-81
2021/01/02 06:27:27;;;;;;;68.20;37.00;;;;;;;-0.65;88.14;98776.63;119054;1151;65210;-79
2021/01/02 06:29:56;;;;;;;69.30;37.47;;;;;;;-0.69;87.66;98770.58;119063;1151;65193;-80
2021/01/02 06:32:26;;;;;;;65.70;38.35;;;;;;;-0.69;87.61;98762.73;119180;1151;65544;-81
2021/01/02 06:35:07;;;;;;;66.70;36.80;;;;;;;-0.68;87.79;98755.77;118837;1151;65116;-80
2021/01/02 06:37:49;;;;;;;72.05;36.30;;;;;;;-0.70;87.64;98763.64;118895;1150;65013;-80
2021/01/02 06:40:20;;;;;;;64.60;36.25;;;;;;;-0.73;87.44;98766.34;119309;1150;65088;-80
2021/01/02 06:42:54;;;;;;;60.65;33.80;;;;;;;-0.74;87.59;98766.37;119347;1150;65200;-82
2021/01/02 06:45:36;;;;;;;65.17;36.07;;;;;;;-0.74;87.73;98771.60;119235;1151;65223;-81
2021/01/02 06:48:15;;;;;;;65.15;37.40;;;;;;;-0.76;87.48;98769.05;119303;1150;65200;-81
2021/01/02 06:50:54;;;;;;;76.40;41.00;;;;;;;-0.75;87.60;98769.89;119325;1150;65152;-80
2021/01/02 06:53:37;;;;;;;66.05;38.85;;;;;;;-0.76;87.51;98776.89;119329;1150;65100;-80
2021/01/02 06:56:06;;;;;;;74.00;40.87;;;;;;;-0.78;87.38;98778.68;119333;1151;65102;-81
2021/01/02 06:58:44;;;;;;;70.37;41.43;;;;;;;-0.76;87.47;98773.42;119354;1151;65140;-80
2021/01/02 07:01:11;;;;;;;64.20;35.90;;;;;;;-0.78;88.03;98773.45;119124;1151;65182;-82
2021/01/02 07:03:40;;;;;;;69.07;39.27;;;;;;;-0.81;88.05;98770.91;119294;1150;65195;-81
2021/01/02 07:06:25;;;;;;;73.17;39.47;;;;;;;-0.83;88.02;98788.39;119311;1150;65124;-82
2021/01/02 07:09:00;;;;;;;69.25;39.30;;;;;;;-0.82;88.17;98789.25;119101;1151;65085;-82
2021/01/02 07:11:42;;;;;;;72.47;41.00;;;;;;;-0.81;87.42;98789.23;119054;1151;65105;-83
2021/01/02 07:14:14;;;;;;;69.30;39.00;;;;;;;-0.79;88.16;98784.83;119318;1151;65035;-82
2021/01/02 07:16:45;;;;;;;70.77;39.27;;;;;;;-0.75;88.17;98793.44;119307;1150;65178;-82
2021/01/02 07:19:37;;;;;;;73.83;40.83;;;;;;;-0.71;87.40;98792.45;119308;1151;65127;-81
2021/01/02 07:22:08;;;;;;;81.00;41.80;;;;;;;-0.62;87.39;98807.95;119307;1150;65510;-83
2021/01/02 07:24:42;;;;;;;73.17;40.97;;;;;;;-0.54;88.00;98808.61;119304;1151;65133;-81
2021/01/02 07:27:11;;;;;;;68.75;38.90;;;;;;;-0.50;87.43;98806.77;118750;1151;65226;-82
2021/01/02 07:29:43;;;;;;;68.77;41.20;;;;;;;-0.42;87.77;98803.95;118588;1151;65129;-82
2021/01/02 07:32:19;;;;;;;73.90;41.90;;;;;;;-0.37;87.52;98807.31;118680;1151;65121;-82
2021/01/02 07:34:51;;;;;;;72.35;42.30;;;;;;;-0.34;87.19;98812.47;118934;1150;65120;-82
2021/01/02 07:37:21;;;;;;;72.13;40.83;;;;;;;-0.34;87.47;98815.08;119231;1151;65104;-81
2021/01/02 07:40:06;;;;;;;69.53;40.03;;;;;;;-0.33;86.87;98816.82;118823;1150;65118;-81
2021/01/02 07:42:34;;;;;;;65.73;38.53;;;;;;;-0.26;87.80;98826.25;119272;1150;65258;-82
2021/01/02 07:45:05;;;;;;;72.07;38.97;;;;;;;-0.21;87.72;98826.98;119333;1151;65097;-84
2021/01/02 07:47:31;;;;;;;71.00;41.20;;;;;;;-0.15;87.25;98818.11;119053;1150;65137;-82
2021/01/02 07:50:00;;;;;;;68.33;38.47;;;;;;;-0.12;86.98;98818.88;118882;1151;65092;-82
2021/01/02 07:52:27;;;;;;;60.50;37.50;;;;;;;-0.04;86.91;98818.67;119299;1151;65104;-81
2021/01/02 07:54:53;;;;;;;67.63;37.43;;;;;;;0.09;87.38;98825.30;118992;1151;65234;-81
2021/01/02 07:57:25;;;;;;;71.37;38.73;;;;;;;0.16;87.06;98819.00;119037;1150;65149;-82
2021/01/02 07:59:54;;;;;;;68.60;38.60;;;;;;;0.24;87.05;98820.52;119121;1150;65201;-83
2021/01/02 08:02:23;;;;;;;74.50;40.43;;;;;;;0.26;87.17;98822.20;119328;1151;65056;-82
2021/01/02 08:04:51;;;;;;;72.93;40.70;;;;;;;0.31;86.50;98822.08;119296;1151;65103;-82
2021/01/02 08:07:19;;;;;;;72.43;41.53;;;;;;;0.35;86.48;98827.20;119251;1150;65274;-82
2021/01/02 08:09:47;;;;;;;64.23;37.17;;;;;;;0.40;86.46;98819.20;119305;1150;65136;-82
2021/01/02 08:12:15;;;;;;;73.55;42.35;;;;;;;0.46;86.85;98823.41;119336;1151;65135;-82
2021/01/02 08:14:45;;;;;;;76.30;42.47;;;;;;;0.53;87.03;98815.33;119352;1150;65124;-82
2021/01/02 08:17:18;;;;;;;69.10;40.90;;;;;;;0.63;86.56;98819.41;119065;1150;65146;-81
2021/01/02 08:19:47;;;;;;;72.70;42.57;;;;;;;0.72;86.14;98822.66;118801;1150;65188;-83
2021/01/02 08:22:26;;;;;;;85.95;44.65;;;;;;;0.84;86.62;98825.77;118556;1151;65104;-82
2021/01/02 08:24:58;;;;;;;69.27;41.00;;;;;;;1.02;86.66;98823.47;119105;1151;65131;-81
2021/01/02 08:27:26;;;;;;;70.00;39.90;;;;;;;1.17;86.04;98830.02;119453;1150;65104;-81
2021/01/02 08:29:56;;;;;;;69.70;40.10;;;;;;;1.36;86.33;98822.41;119268;1151;65226;-82
2021/01/02 08:32:26;;;;;;;72.03;41.83;;;;;;;1.56;85.58;98816.52;119049;1151;65280;-82
2021/01/02 08:34:52;;;;;;;66.00;41.00;;;;;;;1.65;84.91;98830.17;119123;1151;65088;-82
2021/01/02 08:37:20;;;;;;;65.90;38.17;;;;;;;1.63;85.27;98831.13;118981;1151;65225;-82
2021/01/02 08:39:47;;;;;;;69.93;42.67;;;;;;;1.64;85.11;98833.72;118546;1151;65168;-81
2021/01/02 08:42:13;;;;;;;73.53;40.70;;;;;;;1.66;84.99;98842.42;118542;1151;65093;-82
2021/01/02 08:44:47;;;;;;;66.55;39.25;;;;;;;1.72;84.94;98844.83;119098;1151;65175;-81
2021/01/02 08:47:25;;;;;;;65.53;38.60;;;;;;;1.77;84.96;98841.20;118876;1151;65063;-83
2021/01/02 08:49:51;;;;;;;68.73;40.03;;;;;;;1.69;84.10;98847.56;119035;1151;65210;-83
2021/01/02 08:52:21;;;;;;;69.60;43.57;;;;;;;1.65;84.72;98840.68;119093;1151;65125;-83
2021/01/02 08:55:09;;;;;;;70.55;40.90;;;;;;;1.70;84.64;98846.64;118802;1151;65481;-83
2021/01/02 08:57:44;;;;;;;72.95;43.40;;;;;;;1.86;84.66;98843.50;118925;1151;65258;-81
2021/01/02 09:00:29;;;;;;;68.83;43.00;;;;;;;2.05;84.92;98855.09;118624;1151;65120;-82
2021/01/02 09:02:55;;;;;;;57.07;34.73;;;;;;;2.15;84.18;98853.01;119168;1151;65227;-81
2021/01/02 09:05:46;;;;;;;58.80;36.97;;;;;;;2.21;83.57;98855.41;119058;1151;65046;-80
2021/01/02 09:08:18;;;;;;;59.40;38.35;;;;;;;2.29;83.31;98855.14;119013;1151;65146;-80
2021/01/02 09:10:47;;;;;;;68.80;43.67;;;;;;;2.31;83.78;98854.17;119024;1151;65171;-80
2021/01/02 09:13:16;;;;;;;62.13;37.33;;;;;;;2.31;83.76;98859.44;119030;1151;65097;-78
2021/01/02 09:15:56;;;;;;;61.50;37.63;;;;;;;2.29;83.69;98852.52;119083;1151;65148;-80
2021/01/02 09:18:43;;;;;;;59.63;38.07;;;;;;;2.24;83.64;98860.59;119030;1151;65184;-78
2021/01/02 09:21:09;;;;;;;56.60;36.40;;;;;;;2.25;83.85;98859.66;118979;1151;65105;-78
2021/01/02 09:23:41;;;;;;;57.93;37.17;;;;;;;2.23;84.00;98860.63;119099;1151;65490;-80
2021/01/02 09:26:28;;;;;;;55.60;35.20;;;;;;;2.18;83.68;98859.00;119072;1151;65135;-79
2021/01/02 09:28:57;;;;;;;62.40;38.60;;;;;;;2.15;84.14;98856.48;119069;1151;65592;-79
2021/01/02 09:31:24;;;;;;;65.37;39.53;;;;;;;2.10;83.86;98865.45;119054;1151;65121;-80
2021/01/02 09:33:53;;;;;;;61.97;38.87;;;;;;;2.00;83.81;98858.79;119121;1151;65124;-80
2021/01/02 09:36:21;;;;;;;66.07;39.40;;;;;;;1.90;83.84;98856.49;119059;1151;65265;-81
2021/01/02 09:38:49;;;;;;;59.50;36.07;;;;;;;1.87;83.98;98859.23;119045;1151;65128;-79
2021/01/02 09:41:19;;;;;;;56.07;34.47;;;;;;;1.83;84.05;98865.48;118905;1150;65097;-79
2021/01/02 09:43:46;;;;;;;59.10;36.53;;;;;;;1.87;83.93;98872.37;118491;1151;65153;-80
2021/01/02 09:46:17;;;;;;;57.93;37.83;;;;;;;1.95;83.85;98861.60;118642;1151;65376;-79
2021/01/02 09:48:49;;;;;;;57.80;36.83;;;;;;;2.02;83.71;98860.45;119026;1151;65328;-80
2021/01/02 09:51:17;;;;;;;58.87;37.53;;;;;;;2.00;83.83;98846.50;119061;1151;65124;-79
2021/01/02 09:53:43;;;;;;;57.20;36.03;;;;;;;2.04;83.73;98856.02;119090;1150;65146;-78
2021/01/02 09:56:10;;;;;;;54.23;34.67;;;;;;;2.11;83.42;98849.64;119064;1151;65121;-80
2021/01/02 09:58:37;;;;;;;57.87;37.53;;;;;;;2.22;83.62;98849.26;119091;1149;65111;-79
2021/01/02 10:01:05;;;;;;;61.43;39.33;;;;;;;2.30;83.91;98851.62;118745;1150;65277;-80
2021/01/02 10:03:33;;;;;;;67.35;42.80;;;;;;;2.40;83.86;98845.13;118509;1151;65189;-78
2021/01/02 10:06:00;;;;;;;72.27;47.50;;;;;;;2.53;83.69;98838.50;119023;1151;65059;-79
2021/01/02 10:08:26;;;;;;;74.33;48.50;;;;;;;2.59;83.34;98842.67;119086;1151;65252;-79
2021/01/02 10:10:53;;;;;;;81.23;53.13;;;;;;;2.60;83.55;98849.63;119008;1151;65120;-79
2021/01/02 10:13:20;;;;;;;64.57;43.07;;;;;;;2.61;82.95;98849.59;119003;1151;65147;-79
2021/01/02 10:15:47;;;;;;;61.03;39.63;;;;;;;2.63;83.46;98847.77;118686;1151;65487;-79
2021/01/02 10:18:14;;;;;;;65.27;42.90;;;;;;;2.68;83.34;98844.09;118814;1150;65625;-81
2021/01/02 10:20:41;;;;;;;64.93;40.17;;;;;;;2.76;83.49;98837.61;118994;1151;65042;-79
2021/01/02 10:23:08;;;;;;;67.95;43.30;;;;;;;2.88;83.17;98832.83;119021;1151;65093;-80
2021/01/02 10:25:34;;;;;;;63.80;40.27;;;;;;;3.03;82.85;98835.72;119019;1151;65547;-80
2021/01/02 10:28:00;;;;;;;63.93;42.30;;;;;;;3.05;82.28;98828.63;119049;1151;65256;-79
2021/01/02 10:30:27;;;;;;;60.97;40.07;;;;;;;3.14;82.56;98824.77;119044;1151;65124;-79
2021/01/02 10:32:54;;;;;;;62.80;42.53;;;;;;;3.27;82.32;98828.63;119073;1150;65117;-80
2021/01/02 10:35:20;;;;;;;65.23;42.33;;;;;;;3.38;82.32;98824.70;119028;1151;65223;-80
2021/01/02 10:37:48;;;;;;;63.03;42.00;;;;;;;3.38;81.83;98836.09;118994;1151;65284;-80
2021/01/02 10:40:18;;;;;;;70.77;44.93;;;;;;;3.22;81.17;98822.69;118991;1151;65137;-79
2021/01/02 10:42:44;;;;;;;76.70;45.93;;;;;;;3.12;81.67;98820.48;118953;1151;65127;-79
2021/01/02 10:45:17;;;;;;;71.57;45.40;;;;;;;3.15;82.06;98822.98;118998;1151;65149;-79
2021/01/02 10:47:45;;;;;;;78.40;47.75;;;;;;;3.26;82.67;98823.41;118984;1151;65162;-79
2021/01/02 10:50:12;;;;;;;65.53;41.20;;;;;;;3.34;82.27;98817.83;118593;1151;65283;-79
2021/01/02 10:52:39;;;;;;;64.17;41.90;;;;;;;3.44;82.06;98806.01;118480;1151;65055;-77
2021/01/02 10:55:06;;;;;;;61.00;38.95;;;;;;;3.58;81.35;98808.95;118895;1151;65081;-80
2021/01/02 10:57:32;;;;;;;60.83;39.13;;;;;;;3.64;81.39;98798.14;119007;1151;65226;-79
2021/01/02 10:59:59;;;;;;;59.95;39.50;;;;;;;3.65;81.49;98796.36;118967;1150;65153;-79
2021/01/02 11:02:26;;;;;;;63.10;40.85;;;;;;;3.61;82.06;98795.64;118957;1151;65154;-80
2021/01/02 11:04:52;;;;;;;66.80;40.95;;;;;;;3.63;81.80;98799.05;118967;1151;65182;-79
2021/01/02 11:07:29;;;;;;;57.77;38.20;;;;;;;3.65;81.45;98794.57;119029;1151;65127;-77
2021/01/02 11:09:55;;;;;;;64.40;40.60;;;;;;;3.65;81.99;98796.36;118827;1151;65097;-79
2021/01/02 11:12:22;;;;;;;69.65;41.60;;;;;;;3.66;81.63;98792.79;118631;1151;65088;-78
2021/01/02 11:14:52;;;;;;;65.33;41.43;;;;;;;3.63;82.14;98782.38;119061;1151;65209;-80
2021/01/02 11:17:19;;;;;;;61.10;37.55;;;;;;;3.57;81.84;98782.65;118896;1151;65155;-80
2021/01/02 11:19:45;;;;;;;58.87;37.77;;;;;;;3.53;81.15;98776.66;118992;1151;65108;-80
2021/01/02 11:22:13;;;;;;;56.50;37.23;;;;;;;3.42;81.24;98769.20;119030;1151;65120;-79
2021/01/02 11:24:42;;;;;;;56.63;37.87;;;;;;;3.37;81.59;98773.81;119028;1151;65114;-79
2021/01/02 11:27:09;;;;;;;53.77;36.80;;;;;;;3.39;82.05;98765.83;119020;1151;65226;-79
2021/01/02 11:29:36;;;;;;;65.75;43.15;;;;;;;3.41;81.64;98764.84;119028;1151;65210;-79
2021/01/02 11:32:06;;;;;;;65.00;42.97;;;;;;;3.46;81.95;98769.92;118994;1151;65194;-80